createdAt,value
2018-05-13T00:00:30.269Z,4.00
2018-05-13T00:03:00.449Z,3.83
2018-05-13T00:05:30.700Z,4.90
2018-05-13T00:08:01.395Z,5.17
2018-05-13T00:10:36.037Z,6.13
2018-05-13T00:13:06.142Z,6.50
2018-05-13T00:15:37.268Z,5.70
2018-05-13T00:18:07.397Z,5.87
2018-05-13T00:20:38.217Z,5.17
2018-05-13T00:23:12.808Z,4.10
2018-05-13T00:25:49.816Z,4.93
2018-05-13T00:28:21.205Z,5.33
2018-05-13T00:30:55.829Z,3.43
2018-05-13T00:33:28.138Z,5.20
2018-05-13T00:35:58.913Z,3.80
2018-05-13T00:38:30.606Z,4.30
2018-05-13T00:41:00.688Z,4.23
2018-05-13T00:43:30.984Z,4.17
2018-05-13T00:46:01.195Z,4.07
2018-05-13T00:48:31.292Z,4.87
2018-05-13T00:51:01.493Z,4.40
2018-05-13T00:53:32.187Z,5.30
2018-05-13T00:56:05.449Z,4.70
2018-05-13T00:58:35.636Z,5.10
2018-05-13T01:01:05.709Z,3.90
2018-05-13T01:03:35.855Z,4.27
2018-05-13T01:06:06.714Z,5.17
2018-05-13T01:08:36.916Z,5.50
2018-05-13T01:11:07.034Z,5.73
2018-05-13T01:13:37.160Z,5.03
2018-05-13T01:16:10.384Z,5.17
2018-05-13T01:18:40.531Z,4.87
2018-05-13T01:21:10.435Z,4.70
2018-05-13T01:23:41.931Z,4.47
2018-05-13T01:26:12.429Z,4.27
2018-05-13T01:28:42.551Z,4.23
2018-05-13T01:31:12.662Z,4.80
2018-05-13T01:33:42.825Z,4.00
2018-05-13T01:36:12.923Z,4.53
2018-05-13T01:38:43.024Z,4.17
2018-05-13T01:41:13.309Z,4.63
2018-05-13T01:43:43.176Z,4.13
2018-05-13T01:46:13.262Z,4.30
2018-05-13T01:48:44.453Z,3.33
2018-05-13T01:51:14.620Z,3.60
2018-05-13T01:53:44.196Z,3.37
2018-05-13T01:56:14.386Z,3.23
2018-05-13T01:58:45.441Z,3.37
2018-05-13T02:01:15.709Z,2.93
2018-05-13T02:03:46.062Z,3.13
2018-05-13T02:06:16.428Z,3.27
2018-05-13T02:08:46.535Z,3.27
2018-05-13T02:11:16.765Z,4.03
2018-05-13T02:13:46.604Z,3.87
2018-05-13T02:16:17.643Z,3.47
2018-05-13T02:18:47.825Z,3.00
2018-05-13T02:21:18.912Z,3.10
2018-05-13T02:23:49.019Z,2.43
2018-05-13T02:26:19.376Z,2.70
2018-05-13T02:28:49.682Z,2.93
2018-05-13T02:31:19.806Z,2.43
2018-05-13T02:33:49.992Z,2.60
2018-05-13T02:36:20.111Z,2.80
2018-05-13T02:38:50.267Z,2.60
2018-05-13T02:41:20.375Z,3.00
2018-05-13T02:43:50.832Z,3.03
2018-05-13T02:46:21.197Z,3.10
2018-05-13T02:48:51.844Z,3.10
2018-05-13T02:51:21.993Z,3.50
2018-05-13T02:53:52.095Z,3.47
2018-05-13T02:56:22.298Z,3.93
2018-05-13T02:58:52.579Z,3.90
2018-05-13T03:01:22.690Z,4.77
2018-05-13T03:03:53.176Z,4.53
2018-05-13T03:06:23.331Z,4.80
2018-05-13T03:08:53.475Z,5.00
2018-05-13T03:11:24.138Z,5.73
2018-05-13T03:13:54.333Z,5.63
2018-05-13T03:16:24.168Z,5.53
2018-05-13T03:18:54.309Z,7.07
2018-05-13T03:21:24.265Z,7.33
2018-05-13T03:23:54.422Z,7.50
2018-05-13T03:26:24.600Z,7.83
2018-05-13T03:28:56.027Z,7.73
2018-05-13T03:31:26.420Z,6.60
2018-05-13T03:33:57.509Z,7.43
2018-05-13T03:36:27.642Z,5.93
2018-05-13T03:38:57.840Z,6.27
2018-05-13T03:41:27.993Z,6.60
2018-05-13T03:43:58.490Z,6.27
2018-05-13T03:46:28.626Z,6.83
2018-05-13T03:48:58.836Z,6.07
2018-05-13T03:51:28.718Z,6.70
2018-05-13T03:53:58.882Z,6.50
2018-05-13T03:56:29.992Z,6.23
2018-05-13T03:59:00.201Z,6.87
2018-05-13T04:01:30.440Z,6.60
2018-05-13T04:04:00.550Z,6.77
2018-05-13T04:06:30.916Z,6.57
2018-05-13T04:09:17.731Z,6.73
2018-05-13T04:12:04.348Z,5.90
2018-05-13T04:14:51.319Z,6.67
2018-05-13T04:17:21.441Z,6.30
2018-05-13T04:19:51.576Z,6.67
2018-05-13T04:22:21.672Z,6.07
2018-05-13T04:24:53.132Z,7.00
2018-05-13T04:27:23.226Z,6.03
2018-05-13T04:29:53.339Z,6.10
2018-05-13T04:32:24.321Z,6.17
2018-05-13T04:34:54.503Z,6.80
2018-05-13T04:37:24.822Z,6.77
2018-05-13T04:39:56.947Z,6.80
2018-05-13T04:42:27.840Z,6.50
2018-05-13T04:44:57.943Z,6.30
2018-05-13T04:47:28.059Z,7.13
2018-05-13T04:49:58.540Z,7.07
2018-05-13T04:52:29.109Z,7.10
2018-05-13T04:54:59.248Z,7.43
2018-05-13T04:57:29.360Z,7.33
2018-05-13T04:59:59.459Z,6.77
2018-05-13T05:02:29.554Z,7.90
2018-05-13T05:04:59.868Z,7.10
2018-05-13T05:07:30.780Z,7.30
2018-05-13T05:10:00.872Z,7.07
2018-05-13T05:12:31.729Z,6.80
2018-05-13T05:15:02.051Z,7.43
2018-05-13T05:17:32.442Z,7.23
2018-05-13T05:20:02.546Z,7.40
2018-05-13T05:22:32.688Z,7.07
2018-05-13T05:25:02.804Z,6.50
2018-05-13T05:27:32.907Z,6.60
2018-05-13T05:30:03.069Z,6.47
2018-05-13T05:32:33.156Z,6.73
2018-05-13T05:35:04.318Z,6.70
2018-05-13T05:37:34.960Z,7.43
2018-05-13T05:40:04.721Z,6.80
2018-05-13T05:42:34.680Z,6.93
2018-05-13T05:45:04.658Z,7.23
2018-05-13T05:47:35.743Z,7.23
2018-05-13T05:50:06.584Z,6.80
2018-05-13T05:52:37.460Z,6.60
2018-05-13T05:55:08.202Z,6.90
2018-05-13T05:57:38.299Z,6.60
2018-05-13T06:00:08.417Z,6.20
2018-05-13T06:02:38.543Z,6.93
2018-05-13T06:05:08.698Z,6.87
2018-05-13T06:07:38.792Z,7.23
2018-05-13T06:10:09.154Z,7.27
2018-05-13T06:12:39.220Z,7.90
2018-05-13T06:15:10.383Z,7.27
2018-05-13T06:17:41.467Z,8.50
2018-05-13T06:20:12.729Z,7.80
2018-05-13T06:22:42.828Z,8.60
2018-05-13T06:25:12.964Z,8.47
2018-05-13T06:27:43.229Z,8.90
2018-05-13T06:30:13.588Z,8.67
2018-05-13T06:32:45.158Z,8.73
2018-05-13T06:35:15.481Z,9.13
2018-05-13T06:37:45.623Z,10.13
2018-05-13T06:40:15.870Z,9.87
2018-05-13T06:42:45.983Z,10.37
2018-05-13T06:45:16.602Z,10.50
2018-05-13T06:47:47.777Z,10.73
2018-05-13T06:50:18.179Z,11.23
2018-05-13T06:52:48.495Z,14.03
2018-05-13T06:55:18.685Z,11.83
2018-05-13T06:57:48.796Z,10.97
2018-05-13T07:00:20.541Z,11.07
2018-05-13T07:02:52.544Z,10.37
2018-05-13T07:05:22.841Z,9.83
2018-05-13T07:07:52.956Z,10.17
2018-05-13T07:10:23.129Z,9.90
2018-05-13T07:12:53.368Z,11.93
2018-05-13T07:15:23.110Z,9.83
2018-05-13T07:17:54.322Z,11.67
2018-05-13T07:20:24.474Z,11.43
2018-05-13T07:22:54.595Z,11.07
2018-05-13T07:25:24.699Z,16.60
2018-05-13T07:27:55.196Z,14.27
2018-05-13T07:30:25.400Z,12.40
2018-05-13T07:32:56.238Z,15.73
2018-05-13T07:35:26.855Z,13.00
2018-05-13T07:37:57.043Z,13.53
2018-05-13T07:40:27.159Z,10.10
2018-05-13T07:42:58.623Z,12.80
2018-05-13T07:45:28.747Z,20.10
2018-05-13T07:47:59.686Z,15.03
2018-05-13T07:50:29.891Z,12.77
2018-05-13T07:53:00.013Z,11.90
2018-05-13T07:55:30.698Z,11.03
2018-05-13T07:58:01.931Z,12.03
2018-05-13T08:00:32.072Z,12.23
2018-05-13T08:03:02.440Z,11.20
2018-05-13T08:05:32.545Z,9.47
2018-05-13T08:08:03.499Z,9.80
2018-05-13T08:10:33.922Z,9.57
2018-05-13T08:13:04.227Z,11.03
2018-05-13T08:15:35.140Z,9.63
2018-05-13T08:18:04.920Z,9.93
2018-05-13T08:20:35.696Z,10.30
2018-05-13T08:23:05.368Z,9.50
2018-05-13T08:25:35.897Z,9.83
2018-05-13T08:28:05.839Z,9.27
2018-05-13T08:30:35.989Z,11.10
2018-05-13T08:33:06.307Z,11.07
2018-05-13T08:35:36.489Z,10.93
2018-05-13T08:38:06.677Z,10.97
2018-05-13T08:40:36.817Z,9.73
2018-05-13T08:43:06.923Z,9.23
2018-05-13T08:45:37.073Z,8.77
2018-05-13T08:48:07.210Z,9.13
2018-05-13T08:50:37.628Z,9.97
2018-05-13T08:53:07.512Z,10.63
2018-05-13T08:55:37.731Z,9.07
2018-05-13T08:58:08.888Z,9.67
2018-05-13T09:00:39.256Z,8.97
2018-05-13T09:03:09.368Z,9.07
2018-05-13T09:05:39.691Z,9.43
2018-05-13T09:08:09.813Z,8.83
2018-05-13T09:10:39.965Z,8.73
2018-05-13T09:13:10.167Z,9.03
2018-05-13T09:15:40.328Z,10.20
2018-05-13T09:18:10.644Z,9.27
2018-05-13T09:20:41.125Z,8.97
2018-05-13T09:23:11.427Z,8.67
2018-05-13T09:25:41.750Z,8.80
2018-05-13T09:28:12.137Z,8.33
2018-05-13T09:30:42.260Z,8.60
2018-05-13T09:33:12.350Z,8.87
2018-05-13T09:35:42.692Z,8.60
2018-05-13T09:38:12.813Z,7.50
2018-05-13T09:40:42.933Z,7.37
2018-05-13T09:43:13.827Z,8.70
2018-05-13T09:45:44.189Z,8.43
2018-05-13T09:48:14.515Z,8.77
2018-05-13T09:50:44.683Z,8.67
2018-05-13T09:53:14.812Z,8.13
2018-05-13T09:55:45.072Z,7.47
2018-05-13T09:58:16.297Z,9.00
2018-05-13T10:00:46.947Z,8.27
2018-05-13T10:03:16.703Z,7.90
2018-05-13T10:05:47.428Z,9.23
2018-05-13T10:08:17.305Z,8.03
2018-05-13T10:10:47.678Z,8.43
2018-05-13T10:13:18.102Z,9.47
2018-05-13T10:15:48.382Z,8.20
2018-05-13T10:18:19.262Z,8.23
2018-05-13T10:20:50.004Z,8.27
2018-05-13T10:23:21.717Z,8.80
2018-05-13T10:25:53.359Z,9.30
2018-05-13T10:28:23.454Z,8.70
2018-05-13T10:30:53.625Z,8.63
2018-05-13T10:33:23.825Z,8.37
2018-05-13T10:35:54.019Z,8.77
2018-05-13T10:38:24.137Z,8.33
2018-05-13T10:40:54.954Z,8.33
2018-05-13T10:43:25.851Z,8.20
2018-05-13T10:45:56.073Z,8.27
2018-05-13T10:48:26.189Z,9.07
2018-05-13T10:50:57.145Z,7.90
2018-05-13T10:53:27.342Z,8.50
2018-05-13T10:55:58.222Z,7.70
2018-05-13T10:58:29.060Z,8.07
2018-05-13T11:00:59.638Z,8.37
2018-05-13T11:03:30.888Z,7.77
2018-05-13T11:06:02.005Z,8.77
2018-05-13T11:08:32.202Z,7.53
2018-05-13T11:11:02.476Z,7.77
2018-05-13T11:13:32.384Z,7.67
2018-05-13T11:16:03.333Z,7.40
2018-05-13T11:18:33.552Z,7.03
2018-05-13T11:21:04.488Z,7.50
2018-05-13T11:23:35.244Z,7.50
2018-05-13T11:26:05.594Z,7.32
2018-05-13T11:28:36.471Z,6.80
2018-05-13T11:31:07.929Z,7.15
2018-05-13T11:33:38.635Z,8.10
2018-05-13T11:36:09.528Z,6.70
2018-05-13T11:38:40.190Z,6.62
2018-05-13T11:41:11.970Z,6.55
2018-05-13T11:43:43.112Z,6.97
2018-05-13T11:46:14.537Z,6.37
2018-05-13T11:48:45.550Z,6.75
2018-05-13T11:51:16.285Z,6.78
2018-05-13T11:53:46.986Z,6.00
2018-05-13T11:56:18.518Z,6.57
2018-05-13T11:58:50.148Z,6.15
2018-05-13T12:01:21.107Z,6.50
2018-05-13T12:03:51.763Z,6.70
2018-05-13T12:06:22.403Z,6.23
2018-05-13T12:08:52.813Z,6.53
2018-05-13T12:11:23.209Z,6.00
2018-05-13T12:13:54.127Z,6.10
2018-05-13T12:16:24.276Z,5.80
2018-05-13T12:18:54.373Z,5.93
2018-05-13T12:21:25.262Z,6.67
2018-05-13T12:23:56.062Z,5.90
2018-05-13T12:26:26.175Z,6.00
2018-05-13T12:28:56.432Z,6.80
2018-05-13T12:31:28.160Z,5.90
2018-05-13T12:33:58.876Z,5.78
2018-05-13T12:36:29.350Z,5.97
2018-05-13T12:39:00.368Z,6.77
2018-05-13T12:41:30.896Z,6.30
2018-05-13T12:44:01.799Z,6.60
2018-05-13T12:46:31.629Z,6.20
2018-05-13T12:49:01.785Z,5.87
2018-05-13T12:51:32.375Z,5.43
2018-05-13T12:54:02.530Z,5.87
2018-05-13T12:56:32.658Z,6.23
2018-05-13T12:59:02.834Z,6.20
2018-05-13T13:01:33.291Z,5.77
2018-05-13T13:04:03.831Z,6.63
2018-05-13T13:06:34.104Z,6.33
2018-05-13T13:09:03.600Z,6.23
2018-05-13T13:11:33.924Z,6.50
2018-05-13T13:14:04.037Z,6.43
2018-05-13T13:16:33.999Z,6.33
2018-05-13T13:19:05.167Z,7.13
2018-05-13T13:21:35.264Z,7.33
2018-05-13T13:24:05.940Z,7.10
2018-05-13T13:26:36.789Z,7.00
2018-05-13T13:29:07.869Z,6.63
2018-05-13T13:31:38.134Z,7.63
2018-05-13T13:34:08.493Z,7.03
2018-05-13T13:36:38.992Z,7.27
2018-05-13T13:39:09.316Z,8.90
2018-05-13T13:41:39.558Z,7.73
2018-05-13T13:44:10.765Z,8.33
2018-05-13T13:46:40.912Z,7.70
2018-05-13T13:49:11.038Z,8.20
2018-05-13T13:51:41.153Z,7.87
2018-05-13T13:54:11.548Z,8.07
2018-05-13T13:56:41.644Z,7.67
2018-05-13T13:59:12.039Z,8.07
2018-05-13T14:01:42.301Z,7.67
2018-05-13T14:04:12.567Z,7.67
2018-05-13T14:06:43.742Z,7.30
2018-05-13T14:09:13.949Z,7.87
2018-05-13T14:11:44.063Z,8.90
2018-05-13T14:14:14.436Z,7.80
2018-05-13T14:16:44.638Z,8.00
2018-05-13T14:19:15.804Z,7.90
2018-05-13T14:21:45.981Z,8.13
2018-05-13T14:24:16.176Z,8.73
2018-05-13T14:26:47.298Z,7.67
2018-05-13T14:29:17.591Z,7.93
2018-05-13T14:31:48.216Z,7.87
2018-05-13T14:34:18.346Z,7.33
2018-05-13T14:36:48.811Z,8.07
2018-05-13T14:39:19.929Z,7.13
2018-05-13T14:41:50.141Z,7.97
2018-05-13T14:44:20.061Z,7.20
2018-05-13T14:46:50.206Z,6.30
2018-05-13T14:49:20.325Z,6.57
2018-05-13T14:51:50.533Z,7.53
2018-05-13T14:54:20.632Z,7.40
2018-05-13T14:56:51.774Z,7.00
2018-05-13T14:59:24.575Z,6.83
2018-05-13T15:01:55.484Z,7.67
2018-05-13T15:04:25.621Z,7.03
2018-05-13T15:06:55.789Z,7.03
2018-05-13T15:09:26.123Z,7.10
2018-05-13T15:11:56.237Z,9.53
2018-05-13T15:14:26.543Z,6.83
2018-05-13T15:16:56.704Z,7.93
2018-05-13T15:19:27.612Z,7.17
2018-05-13T15:21:57.521Z,6.90
2018-05-13T15:24:27.918Z,6.70
2018-05-13T15:26:58.021Z,6.63
2018-05-13T15:29:27.855Z,6.60
2018-05-13T15:31:58.985Z,7.77
2018-05-13T15:34:29.104Z,7.10
2018-05-13T15:36:59.211Z,7.93
2018-05-13T15:39:29.632Z,7.10
2018-05-13T15:41:59.887Z,6.77
2018-05-13T15:44:31.134Z,7.53
2018-05-13T15:47:01.296Z,7.87
2018-05-13T15:49:31.478Z,8.63
2018-05-13T15:52:01.614Z,8.17
2018-05-13T15:54:31.738Z,8.73
2018-05-13T15:57:01.899Z,8.63
2018-05-13T15:59:32.260Z,8.30
2018-05-13T16:02:02.400Z,9.33
2018-05-13T16:04:32.649Z,8.83
2018-05-13T16:07:02.830Z,8.63
2018-05-13T16:09:33.115Z,8.70
2018-05-13T16:12:03.357Z,8.47
2018-05-13T16:14:33.533Z,9.03
2018-05-13T16:17:03.370Z,9.00
2018-05-13T16:19:33.628Z,9.73
2018-05-13T16:22:04.525Z,8.80
2018-05-13T16:24:34.758Z,10.07
2018-05-13T16:27:04.695Z,9.80
2018-05-13T16:29:34.914Z,9.90
2018-05-13T16:32:05.966Z,9.43
2018-05-13T16:34:36.430Z,10.40
2018-05-13T16:37:06.641Z,11.27
2018-05-13T16:39:37.086Z,10.70
2018-05-13T16:42:07.213Z,10.97
2018-05-13T16:44:37.652Z,11.63
2018-05-13T16:47:07.866Z,10.00
2018-05-13T16:49:38.089Z,12.33
2018-05-13T16:52:08.230Z,11.27
2018-05-13T16:54:38.394Z,11.13
2018-05-13T16:57:08.688Z,11.07
2018-05-13T16:59:38.997Z,12.87
2018-05-13T17:02:09.175Z,11.73
2018-05-13T17:04:39.283Z,12.13
2018-05-13T17:07:09.521Z,12.80
2018-05-13T17:09:39.825Z,12.47
2018-05-13T17:12:10.751Z,11.27
2018-05-13T17:14:40.614Z,12.00
2018-05-13T17:17:10.821Z,11.70
2018-05-13T17:19:41.160Z,12.47
2018-05-13T17:22:11.302Z,11.60
2018-05-13T17:24:42.434Z,12.90
2018-05-13T17:27:12.792Z,12.30
2018-05-13T17:29:42.999Z,12.10
2018-05-13T17:32:13.485Z,12.20
2018-05-13T17:34:43.640Z,11.33
2018-05-13T17:37:14.212Z,11.87
2018-05-13T17:39:44.611Z,10.57
2018-05-13T17:42:14.752Z,10.60
2018-05-13T17:44:45.203Z,11.50
2018-05-13T17:47:15.375Z,11.33
2018-05-13T17:49:45.567Z,10.37
2018-05-13T17:52:15.832Z,11.23
2018-05-13T17:54:45.989Z,11.43
2018-05-13T17:57:16.557Z,10.07
2018-05-13T17:59:46.673Z,10.03
2018-05-13T18:02:17.389Z,10.57
2018-05-13T18:04:47.510Z,11.03
2018-05-13T18:07:17.848Z,10.17
2018-05-13T18:09:48.124Z,9.57
2018-05-13T18:12:18.279Z,10.27
2018-05-13T18:14:48.766Z,10.47
2018-05-13T18:17:18.977Z,11.30
2018-05-13T18:19:49.252Z,10.40
2018-05-13T18:22:19.429Z,11.40
2018-05-13T18:24:49.736Z,11.90
2018-05-13T18:27:20.278Z,11.23
2018-05-13T18:29:50.489Z,12.03
2018-05-13T18:32:20.640Z,12.30
2018-05-13T18:34:50.842Z,12.53
2018-05-13T18:37:21.382Z,12.60
2018-05-13T18:39:51.609Z,11.47
2018-05-13T18:42:21.738Z,11.43
2018-05-13T18:44:51.876Z,9.20
2018-05-13T18:47:22.562Z,8.83
2018-05-13T18:49:53.511Z,8.73
2018-05-13T18:52:23.613Z,10.00
2018-05-13T18:54:54.162Z,9.63
2018-05-13T18:57:29.197Z,8.50
2018-05-13T18:59:59.352Z,8.03
2018-05-13T19:02:29.230Z,7.93
2018-05-13T19:04:59.128Z,9.80
2018-05-13T19:07:31.125Z,11.23
2018-05-13T19:10:01.341Z,9.73
2018-05-13T19:12:32.717Z,10.33
2018-05-13T19:15:09.242Z,9.23
2018-05-13T19:17:40.729Z,12.13
2018-05-13T19:20:16.586Z,13.90
2018-05-13T19:22:53.446Z,11.17
2018-05-13T19:25:27.044Z,12.17
2018-05-13T19:28:00.794Z,12.93
2018-05-13T19:30:31.216Z,11.97
2018-05-13T19:33:01.927Z,12.70
2018-05-13T19:35:33.972Z,12.57
2018-05-13T19:38:03.780Z,10.10
2018-05-13T19:40:36.517Z,8.13
2018-05-13T19:43:08.777Z,8.50
2018-05-13T19:45:42.982Z,9.27
2018-05-13T19:48:15.458Z,9.00
2018-05-13T19:50:45.675Z,6.67
2018-05-13T19:53:17.783Z,10.07
2018-05-13T19:55:48.327Z,11.43
2018-05-13T19:58:18.319Z,12.57
2018-05-13T20:00:48.970Z,11.47
2018-05-13T20:03:19.525Z,10.50
2018-05-13T20:05:50.701Z,10.13
2018-05-13T20:08:21.530Z,14.20
2018-05-13T20:10:55.094Z,12.57
2018-05-13T20:16:01.004Z,14.70
2018-05-13T20:18:33.789Z,14.07
2018-05-13T20:21:05.408Z,11.33
2018-05-13T20:23:35.613Z,19.17
2018-05-13T20:26:06.498Z,17.63
2018-05-13T20:28:43.820Z,16.03
2018-05-13T20:31:15.088Z,14.97
2018-05-13T20:33:57.523Z,14.67
2018-05-13T20:36:28.803Z,18.00
2018-05-13T20:38:59.187Z,16.20
2018-05-13T20:41:29.092Z,16.10
2018-05-13T20:43:59.316Z,17.60
2018-05-13T20:46:29.476Z,13.50
2018-05-13T20:49:00.331Z,15.30
2018-05-13T20:51:31.181Z,15.07
2018-05-13T20:54:01.439Z,14.20
2018-05-13T20:56:31.533Z,15.00
2018-05-13T20:59:02.858Z,14.03
2018-05-13T21:04:32.686Z,12.77
2018-05-13T21:07:02.865Z,12.40
2018-05-13T21:09:33.064Z,11.97
2018-05-13T21:12:03.416Z,12.03
2018-05-13T21:14:34.410Z,12.30
2018-05-13T21:17:06.860Z,13.67
2018-05-13T21:19:37.153Z,11.70
2018-05-13T21:22:07.322Z,12.57
2018-05-13T21:24:37.644Z,11.20
2018-05-13T21:27:08.719Z,11.57
2018-05-13T21:29:38.930Z,11.27
2018-05-13T21:32:09.174Z,11.97
2018-05-13T21:34:39.269Z,12.13
2018-05-13T21:37:09.740Z,12.47
2018-05-13T21:39:39.939Z,12.10
2018-05-13T21:42:10.296Z,10.93
2018-05-13T21:44:52.616Z,11.63
2018-05-13T21:47:25.927Z,10.43
2018-05-13T21:49:59.584Z,12.03
2018-05-13T21:52:29.779Z,10.83
2018-05-13T21:54:59.947Z,13.03
2018-05-13T21:57:40.485Z,13.03
2018-05-13T22:09:50.683Z,11.37
2018-05-13T22:12:21.136Z,9.53
2018-05-13T22:14:51.522Z,11.03
2018-05-13T22:17:21.697Z,12.77
2018-05-13T22:19:51.983Z,11.97
2018-05-13T22:22:22.057Z,13.33
2018-05-13T22:24:52.175Z,12.60
2018-05-13T22:27:22.556Z,12.40
2018-05-13T22:29:52.669Z,13.70
2018-05-13T22:32:22.991Z,12.87
2018-05-13T22:34:53.220Z,13.63
2018-05-13T22:37:23.576Z,13.10
2018-05-13T22:39:53.676Z,13.80
2018-05-13T22:42:23.992Z,13.73
2018-05-13T22:44:54.860Z,12.23
2018-05-13T22:47:25.156Z,12.70
2018-05-13T22:49:55.999Z,12.47
2018-05-13T22:52:27.362Z,13.10
2018-05-13T22:54:58.114Z,13.87
2018-05-13T22:57:28.736Z,13.57
2018-05-13T22:59:59.076Z,12.60
2018-05-13T23:02:29.184Z,15.17
2018-05-13T23:05:06.914Z,15.67
2018-05-13T23:07:37.006Z,15.87
2018-05-13T23:10:11.744Z,16.03
2018-05-13T23:12:41.698Z,17.20
2018-05-13T23:15:11.823Z,15.97
2018-05-13T23:17:41.949Z,17.77
2018-05-13T23:20:12.511Z,17.20
2018-05-13T23:22:42.641Z,17.13
2018-05-13T23:25:12.821Z,20.57
2018-05-13T23:30:22.676Z,28.00
2018-05-13T23:32:53.910Z,23.63
2018-05-13T23:35:24.347Z,20.13
2018-05-13T23:37:55.388Z,20.37
2018-05-13T23:40:25.513Z,25.00
2018-05-13T23:43:00.113Z,22.63
2018-05-13T23:45:30.235Z,19.27
2018-05-13T23:48:00.530Z,17.50
2018-05-13T23:50:30.644Z,17.20
2018-05-13T23:53:01.610Z,18.60
2018-05-13T23:55:32.059Z,17.10
2018-05-13T23:58:02.230Z,17.67
